Grenell, New York
Current Conditions -  °F | °C
As of 9:56 AM on Tuesday 21 Oct 2014 (Local Time) from KART Reporting Station
Light Rain Light Rain  
Wind Chill: 50°   Ceiling: 3700
Heat Index: 50°   Visibility: 6mi
Dew Point: 44°   Wind: 6mph
Humidity: 80%   Direction: 50°NE
Pressure: 29.87"   Gusts: NA
Location:  44.1926°N, 76.1112°W
Report Text: KART 211356Z AUTO 05005KT 6SM -RA BKN037 OVC048 10/07 A2987 RMK AO2 RAB00 SLP116 P0001 T01000067
Loading
Personal Weather Stations






























Interactive Weather Map
Tropical Storm Tracking
New forecast layout! Learn more

10-Day Weather Forecast

Advertisements
Track Severe Weather on mobile